sensor_id;sensor_type;location;lat;lon;timestamp;pressure;altitude;pressure_sealevel;temperature;humidity
72465;BME280;60471;52.150;4.508;2023-04-27T00:00:51;101898.00;;;7.15;65.35
72465;BME280;60471;52.150;4.508;2023-04-27T00:03:17;101899.72;;;7.17;65.67
72465;BME280;60471;52.150;4.508;2023-04-27T00:05:43;101898.66;;;7.29;65.25
72465;BME280;60471;52.150;4.508;2023-04-27T00:08:09;101887.13;;;7.36;65.13
72465;BME280;60471;52.150;4.508;2023-04-27T00:10:35;101886.28;;;7.34;65.04
72465;BME280;60471;52.150;4.508;2023-04-27T00:13:02;101892.41;;;7.35;65.07
72465;BME280;60471;52.150;4.508;2023-04-27T00:15:28;101882.94;;;7.24;64.76
72465;BME280;60471;52.150;4.508;2023-04-27T00:17:54;101876.78;;;7.29;65.15
72465;BME280;60471;52.150;4.508;2023-04-27T00:20:22;101885.72;;;7.17;64.76
72465;BME280;60471;52.150;4.508;2023-04-27T00:22:48;101889.28;;;7.13;65.20
72465;BME280;60471;52.150;4.508;2023-04-27T00:25:15;101892.28;;;6.90;65.29
72465;BME280;60471;52.150;4.508;2023-04-27T00:27:41;101884.19;;;7.04;65.35
72465;BME280;60471;52.150;4.508;2023-04-27T00:30:07;101883.31;;;7.03;65.64
72465;BME280;60471;52.150;4.508;2023-04-27T00:32:34;101879.56;;;7.19;65.75
72465;BME280;60471;52.150;4.508;2023-04-27T00:35:00;101884.88;;;7.15;65.53
72465;BME280;60471;52.150;4.508;2023-04-27T00:37:26;101873.38;;;7.22;65.21
72465;BME280;60471;52.150;4.508;2023-04-27T00:39:53;101875.78;;;7.34;64.53
72465;BME280;60471;52.150;4.508;2023-04-27T00:42:19;101875.81;;;7.33;64.72
72465;BME280;60471;52.150;4.508;2023-04-27T00:44:46;101867.94;;;7.33;64.74
72465;BME280;60471;52.150;4.508;2023-04-27T00:47:13;101869.81;;;7.28;64.95
72465;BME280;60471;52.150;4.508;2023-04-27T00:49:40;101877.19;;;7.06;65.16
72465;BME280;60471;52.150;4.508;2023-04-27T00:52:06;101871.09;;;7.02;65.58
72465;BME280;60471;52.150;4.508;2023-04-27T00:54:33;101870.00;;;7.14;65.62
72465;BME280;60471;52.150;4.508;2023-04-27T00:56:59;101871.78;;;7.13;65.50
72465;BME280;60471;52.150;4.508;2023-04-27T00:59:25;101872.63;;;7.14;65.59
72465;BME280;60471;52.150;4.508;2023-04-27T01:01:52;101874.44;;;7.12;65.48
72465;BME280;60471;52.150;4.508;2023-04-27T01:04:19;101870.81;;;7.19;65.32
72465;BME280;60471;52.150;4.508;2023-04-27T01:06:46;101878.75;;;7.14;65.36
72465;BME280;60471;52.150;4.508;2023-04-27T01:09:12;101883.25;;;7.08;65.50
72465;BME280;60471;52.150;4.508;2023-04-27T01:11:38;101879.78;;;7.07;65.99
72465;BME280;60471;52.150;4.508;2023-04-27T01:14:05;101879.97;;;6.95;66.06
72465;BME280;60471;52.150;4.508;2023-04-27T01:16:33;101874.81;;;6.89;66.36
72465;BME280;60471;52.150;4.508;2023-04-27T01:19:00;101871.38;;;6.85;66.65
72465;BME280;60471;52.150;4.508;2023-04-27T01:21:26;101863.28;;;6.99;66.51
72465;BME280;60471;52.150;4.508;2023-04-27T01:23:53;101859.06;;;6.89;66.95
72465;BME280;60471;52.150;4.508;2023-04-27T01:26:19;101849.50;;;6.86;66.57
72465;BME280;60471;52.150;4.508;2023-04-27T01:28:46;101850.44;;;6.81;67.43
72465;BME280;60471;52.150;4.508;2023-04-27T01:31:12;101852.13;;;6.86;67.10
72465;BME280;60471;52.150;4.508;2023-04-27T01:33:38;101857.22;;;6.94;66.81
72465;BME280;60471;52.150;4.508;2023-04-27T01:36:07;101843.31;;;6.90;66.50
72465;BME280;60471;52.150;4.508;2023-04-27T01:38:34;101841.09;;;6.64;67.02
72465;BME280;60471;52.150;4.508;2023-04-27T01:41:03;101841.66;;;6.83;67.61
72465;BME280;60471;52.150;4.508;2023-04-27T01:43:30;101838.34;;;6.72;67.47
72465;BME280;60471;52.150;4.508;2023-04-27T01:46:11;101839.31;;;6.66;67.78
72465;BME280;60471;52.150;4.508;2023-04-27T01:48:39;101836.72;;;6.65;68.02
72465;BME280;60471;52.150;4.508;2023-04-27T01:51:06;101841.84;;;6.71;68.10
72465;BME280;60471;52.150;4.508;2023-04-27T01:53:32;101838.53;;;6.60;68.14
72465;BME280;60471;52.150;4.508;2023-04-27T01:56:00;101844.66;;;6.60;68.57
72465;BME280;60471;52.150;4.508;2023-04-27T01:58:26;101849.97;;;6.56;68.66
72465;BME280;60471;52.150;4.508;2023-04-27T02:00:53;101836.88;;;6.54;69.10
72465;BME280;60471;52.150;4.508;2023-04-27T02:03:20;101838.50;;;6.63;69.16
72465;BME280;60471;52.150;4.508;2023-04-27T02:05:46;101833.38;;;6.55;68.90
72465;BME280;60471;52.150;4.508;2023-04-27T02:08:13;101837.66;;;6.59;68.80
72465;BME280;60471;52.150;4.508;2023-04-27T02:10:39;101830.56;;;6.67;68.66
72465;BME280;60471;52.150;4.508;2023-04-27T02:13:05;101829.69;;;6.67;68.89
72465;BME280;60471;52.150;4.508;2023-04-27T02:15:31;101829.09;;;6.51;68.53
72465;BME280;60471;52.150;4.508;2023-04-27T02:17:58;101828.13;;;6.55;68.84
72465;BME280;60471;52.150;4.508;2023-04-27T02:20:24;101824.44;;;6.67;68.25
72465;BME280;60471;52.150;4.508;2023-04-27T02:22:50;101823.56;;;6.68;68.53
72465;BME280;60471;52.150;4.508;2023-04-27T02:25:18;101826.31;;;6.59;68.45
72465;BME280;60471;52.150;4.508;2023-04-27T02:27:44;101827.22;;;6.58;67.83
72465;BME280;60471;52.150;4.508;2023-04-27T02:30:10;101829.00;;;6.56;67.81
72465;BME280;60471;52.150;4.508;2023-04-27T02:32:37;101822.94;;;6.51;67.88
72465;BME280;60471;52.150;4.508;2023-04-27T02:35:03;101824.88;;;6.38;67.61
72465;BME280;60471;52.150;4.508;2023-04-27T02:37:30;101821.81;;;6.10;68.16
72465;BME280;60471;52.150;4.508;2023-04-27T02:39:56;101820.78;;;6.22;67.79
72465;BME280;60471;52.150;4.508;2023-04-27T02:42:22;101819.81;;;6.26;68.02
72465;BME280;60471;52.150;4.508;2023-04-27T02:44:49;101825.78;;;6.37;67.86
72465;BME280;60471;52.150;4.508;2023-04-27T02:47:15;101817.22;;;6.24;67.49
72465;BME280;60471;52.150;4.508;2023-04-27T02:49:42;101834.09;;;6.03;67.93
72465;BME280;60471;52.150;4.508;2023-04-27T02:52:08;101827.75;;;6.21;67.83
72465;BME280;60471;52.150;4.508;2023-04-27T02:54:34;101830.25;;;6.30;67.59
72465;BME280;60471;52.150;4.508;2023-04-27T02:57:01;101839.88;;;6.30;67.38
72465;BME280;60471;52.150;4.508;2023-04-27T02:59:27;101836.63;;;6.11;67.36
72465;BME280;60471;52.150;4.508;2023-04-27T03:01:53;101837.41;;;6.19;67.19
72465;BME280;60471;52.150;4.508;2023-04-27T03:04:19;101829.53;;;6.18;66.23
72465;BME280;60471;52.150;4.508;2023-04-27T03:06:45;101832.16;;;6.18;66.05
72465;BME280;60471;52.150;4.508;2023-04-27T03:09:12;101842.84;;;6.04;66.54
72465;BME280;60471;52.150;4.508;2023-04-27T03:11:38;101837.56;;;6.08;65.92
72465;BME280;60471;52.150;4.508;2023-04-27T03:14:05;101841.94;;;6.08;66.38
72465;BME280;60471;52.150;4.508;2023-04-27T03:16:31;101837.34;;;6.24;66.21
72465;BME280;60471;52.150;4.508;2023-04-27T03:18:58;101829.53;;;6.21;65.90
72465;BME280;60471;52.150;4.508;2023-04-27T03:21:24;101844.25;;;6.28;66.46
72465;BME280;60471;52.150;4.508;2023-04-27T03:23:52;101836.19;;;6.43;66.10
72465;BME280;60471;52.150;4.508;2023-04-27T03:26:18;101836.22;;;6.40;65.83
72465;BME280;60471;52.150;4.508;2023-04-27T03:28:45;101841.56;;;6.34;66.27
72465;BME280;60471;52.150;4.508;2023-04-27T03:31:13;101844.22;;;6.29;66.58
72465;BME280;60471;52.150;4.508;2023-04-27T03:33:41;101839.78;;;6.36;66.16
72465;BME280;60471;52.150;4.508;2023-04-27T03:36:07;101836.53;;;6.17;66.78
72465;BME280;60471;52.150;4.508;2023-04-27T03:38:35;101834.75;;;6.21;66.68
72465;BME280;60471;52.150;4.508;2023-04-27T03:41:02;101833.34;;;5.95;66.94
72465;BME280;60471;52.150;4.508;2023-04-27T03:43:28;101838.78;;;5.78;67.80
72465;BME280;60471;52.150;4.508;2023-04-27T03:45:54;101836.94;;;5.87;67.75
72465;BME280;60471;52.150;4.508;2023-04-27T03:48:21;101841.44;;;5.72;67.94
72465;BME280;60471;52.150;4.508;2023-04-27T03:50:47;101850.00;;;5.85;67.65
72465;BME280;60471;52.150;4.508;2023-04-27T03:53:14;101848.22;;;5.93;67.09
72465;BME280;60471;52.150;4.508;2023-04-27T03:55:41;101847.34;;;5.93;67.11
72465;BME280;60471;52.150;4.508;2023-04-27T03:58:09;101855.03;;;6.08;67.23
72465;BME280;60471;52.150;4.508;2023-04-27T04:00:37;101853.25;;;6.07;66.98
72465;BME280;60471;52.150;4.508;2023-04-27T04:03:04;101855.13;;;5.99;66.94
72465;BME280;60471;52.150;4.508;2023-04-27T04:05:31;101862.34;;;5.77;67.04
72465;BME280;60471;52.150;4.508;2023-04-27T04:07:58;101857.91;;;5.83;66.90
72465;BME280;60471;52.150;4.508;2023-04-27T04:10:24;101862.25;;;5.85;66.82
72465;BME280;60471;52.150;4.508;2023-04-27T04:12:51;101856.06;;;5.93;66.17
72465;BME280;60471;52.150;4.508;2023-04-27T04:15:18;101862.28;;;5.81;66.46
72465;BME280;60471;52.150;4.508;2023-04-27T04:17:45;101861.47;;;5.75;66.73
72465;BME280;60471;52.150;4.508;2023-04-27T04:20:12;101862.31;;;5.80;66.77
72465;BME280;60471;52.150;4.508;2023-04-27T04:22:38;101867.47;;;5.88;66.39
72465;BME280;60471;52.150;4.508;2023-04-27T04:25:05;101862.34;;;5.77;67.07
72465;BME280;60471;52.150;4.508;2023-04-27T04:27:32;101868.34;;;5.88;67.48
72465;BME280;60471;52.150;4.508;2023-04-27T04:29:58;101879.69;;;5.89;67.65
72465;BME280;60471;52.150;4.508;2023-04-27T04:32:25;101887.34;;;6.08;67.28
72465;BME280;60471;52.150;4.508;2023-04-27T04:34:56;101892.53;;;6.12;67.16
72465;BME280;60471;52.150;4.508;2023-04-27T04:37:23;101878.44;;;6.20;67.01
72465;BME280;60471;52.150;4.508;2023-04-27T04:39:50;101877.53;;;6.23;66.53
72465;BME280;60471;52.150;4.508;2023-04-27T04:42:16;101894.06;;;6.26;67.12
72465;BME280;60471;52.150;4.508;2023-04-27T04:44:43;101886.13;;;6.34;67.33
72465;BME280;60471;52.150;4.508;2023-04-27T04:47:09;101882.69;;;6.29;67.62
72465;BME280;60471;52.150;4.508;2023-04-27T04:49:35;101879.91;;;6.39;67.15
72465;BME280;60471;52.150;4.508;2023-04-27T04:52:02;101889.63;;;6.33;67.40
72465;BME280;60471;52.150;4.508;2023-04-27T04:54:29;101888.88;;;6.23;68.19
72465;BME280;60471;52.150;4.508;2023-04-27T04:56:55;101881.78;;;6.31;68.01
72465;BME280;60471;52.150;4.508;2023-04-27T04:59:23;101879.91;;;6.41;67.45
72465;BME280;60471;52.150;4.508;2023-04-27T05:01:50;101877.31;;;6.38;67.75
72465;BME280;60471;52.150;4.508;2023-04-27T05:04:20;101877.25;;;6.44;67.38
72465;BME280;60471;52.150;4.508;2023-04-27T05:06:47;101884.09;;;6.54;66.26
72465;BME280;60471;52.150;4.508;2023-04-27T05:09:14;101883.25;;;6.51;66.81
72465;BME280;60471;52.150;4.508;2023-04-27T05:11:40;101887.69;;;6.47;66.55
72465;BME280;60471;52.150;4.508;2023-04-27T05:14:06;101881.41;;;6.57;66.32
72465;BME280;60471;52.150;4.508;2023-04-27T05:16:33;101885.91;;;6.49;66.52
72465;BME280;60471;52.150;4.508;2023-04-27T05:18:59;101889.81;;;6.79;66.37
72465;BME280;60471;52.150;4.508;2023-04-27T05:21:25;101889.88;;;6.76;65.49
72465;BME280;60471;52.150;4.508;2023-04-27T05:23:51;101891.53;;;6.82;65.11
72465;BME280;60471;52.150;4.508;2023-04-27T05:26:17;101888.88;;;6.85;65.04
72465;BME280;60471;52.150;4.508;2023-04-27T05:28:44;101890.50;;;6.92;64.63
72465;BME280;60471;52.150;4.508;2023-04-27T05:31:11;101886.06;;;6.97;64.78
72465;BME280;60471;52.150;4.508;2023-04-27T05:33:38;101887.66;;;7.06;64.46
72465;BME280;60471;52.150;4.508;2023-04-27T05:36:04;101892.75;;;7.15;63.62
72465;BME280;60471;52.150;4.508;2023-04-27T05:38:30;101891.09;;;7.09;63.13
72465;BME280;60471;52.150;4.508;2023-04-27T05:40:58;101892.88;;;7.07;63.68
72465;BME280;60471;52.150;4.508;2023-04-27T05:43:25;101891.06;;;7.11;63.98
72465;BME280;60471;52.150;4.508;2023-04-27T05:45:51;101884.78;;;7.21;63.86
72465;BME280;60471;52.150;4.508;2023-04-27T05:48:19;101887.53;;;7.13;63.30
72465;BME280;60471;52.150;4.508;2023-04-27T05:50:45;101889.03;;;7.28;62.16
72465;BME280;60471;52.150;4.508;2023-04-27T05:53:11;101887.34;;;7.24;62.34
72465;BME280;60471;52.150;4.508;2023-04-27T05:55:37;101896.66;;;7.42;63.72
72465;BME280;60471;52.150;4.508;2023-04-27T05:58:04;101896.16;;;7.20;61.87
72465;BME280;60471;52.150;4.508;2023-04-27T06:00:30;101903.63;;;6.92;62.63
72465;BME280;60471;52.150;4.508;2023-04-27T06:02:56;101907.06;;;6.97;62.66
72465;BME280;60471;52.150;4.508;2023-04-27T06:05:22;101911.44;;;6.96;63.06
72465;BME280;60471;52.150;4.508;2023-04-27T06:07:49;101904.63;;;6.83;63.29
72465;BME280;60471;52.150;4.508;2023-04-27T06:10:15;101901.44;;;6.64;65.06
72465;BME280;60471;52.150;4.508;2023-04-27T06:12:41;101899.44;;;6.80;63.85
72465;BME280;60471;52.150;4.508;2023-04-27T06:15:07;101904.44;;;6.97;63.36
72465;BME280;60471;52.150;4.508;2023-04-27T06:17:35;101913.00;;;7.05;62.75
72465;BME280;60471;52.150;4.508;2023-04-27T06:20:05;101906.97;;;7.02;63.79
72465;BME280;60471;52.150;4.508;2023-04-27T06:22:32;101907.06;;;6.94;63.22
72465;BME280;60471;52.150;4.508;2023-04-27T06:24:58;101910.69;;;6.88;63.87
72465;BME280;60471;52.150;4.508;2023-04-27T06:27:25;101908.91;;;6.89;64.23
72465;BME280;60471;52.150;4.508;2023-04-27T06:29:51;101909.53;;;7.06;63.31
72465;BME280;60471;52.150;4.508;2023-04-27T06:32:17;101910.25;;;7.14;63.36
72465;BME280;60471;52.150;4.508;2023-04-27T06:34:43;101905.81;;;7.19;63.06
72465;BME280;60471;52.150;4.508;2023-04-27T06:37:10;101902.53;;;7.07;64.20
72465;BME280;60471;52.150;4.508;2023-04-27T06:39:36;101893.44;;;7.28;62.82
72465;BME280;60471;52.150;4.508;2023-04-27T06:42:02;101904.59;;;7.37;62.70
72465;BME280;60471;52.150;4.508;2023-04-27T06:44:31;101900.69;;;7.60;63.16
72465;BME280;60471;52.150;4.508;2023-04-27T06:46:57;101902.75;;;7.90;62.55
72465;BME280;60471;52.150;4.508;2023-04-27T06:49:23;101906.66;;;8.14;61.63
72465;BME280;60471;52.150;4.508;2023-04-27T06:51:50;101910.34;;;8.05;61.26
72465;BME280;60471;52.150;4.508;2023-04-27T06:54:16;101902.44;;;8.05;61.93
72465;BME280;60471;52.150;4.508;2023-04-27T06:56:42;101902.41;;;8.07;62.07
72465;BME280;60471;52.150;4.508;2023-04-27T06:59:09;101907.97;;;8.33;61.49
72465;BME280;60471;52.150;4.508;2023-04-27T07:01:36;101914.81;;;8.43;60.55
72465;BME280;60471;52.150;4.508;2023-04-27T07:04:03;101900.16;;;8.30;61.37
72465;BME280;60471;52.150;4.508;2023-04-27T07:06:30;101916.03;;;8.27;60.28
72465;BME280;60471;52.150;4.508;2023-04-27T07:08:57;101910.16;;;8.14;59.93
72465;BME280;60471;52.150;4.508;2023-04-27T07:11:23;101901.91;;;8.31;59.37
72465;BME280;60471;52.150;4.508;2023-04-27T07:13:50;101899.28;;;8.31;59.34
72465;BME280;60471;52.150;4.508;2023-04-27T07:16:16;101906.22;;;8.34;59.41
72465;BME280;60471;52.150;4.508;2023-04-27T07:18:43;101902.72;;;8.36;59.57
72465;BME280;60471;52.150;4.508;2023-04-27T07:21:10;101895.34;;;8.52;59.20
72465;BME280;60471;52.150;4.508;2023-04-27T07:23:38;101892.78;;;8.86;58.25
72465;BME280;60471;52.150;4.508;2023-04-27T07:26:06;101893.38;;;8.97;56.00
72465;BME280;60471;52.150;4.508;2023-04-27T07:28:33;101897.09;;;8.89;55.42
72465;BME280;60471;52.150;4.508;2023-04-27T07:31:04;101897.31;;;8.81;56.03
72465;BME280;60471;52.150;4.508;2023-04-27T07:33:34;101900.34;;;9.02;56.39
72465;BME280;60471;52.150;4.508;2023-04-27T07:36:00;101916.94;;;9.04;56.25
72465;BME280;60471;52.150;4.508;2023-04-27T07:38:27;101915.19;;;9.04;55.49
72465;BME280;60471;52.150;4.508;2023-04-27T07:40:57;101912.94;;;8.87;54.82
72465;BME280;60471;52.150;4.508;2023-04-27T07:43:27;101906.34;;;9.07;54.05
72465;BME280;60471;52.150;4.508;2023-04-27T07:45:53;101903.88;;;8.99;53.95
72465;BME280;60471;52.150;4.508;2023-04-27T07:48:20;101898.94;;;9.21;53.59
72465;BME280;60471;52.150;4.508;2023-04-27T07:50:47;101900.84;;;9.16;54.41
72465;BME280;60471;52.150;4.508;2023-04-27T07:53:13;101895.00;;;9.71;53.31
72465;BME280;60471;52.150;4.508;2023-04-27T07:55:39;101896.09;;;9.63;53.45
72465;BME280;60471;52.150;4.508;2023-04-27T07:58:06;101897.19;;;9.55;53.72
72465;BME280;60471;52.150;4.508;2023-04-27T08:00:32;101901.09;;;9.73;52.35
72465;BME280;60471;52.150;4.508;2023-04-27T08:02:58;101895.66;;;9.79;51.79
72465;BME280;60471;52.150;4.508;2023-04-27T08:05:24;101891.47;;;10.03;51.11
72465;BME280;60471;52.150;4.508;2023-04-27T08:07:51;101890.06;;;10.23;51.56
72465;BME280;60471;52.150;4.508;2023-04-27T08:10:18;101893.31;;;10.31;52.02
72465;BME280;60471;52.150;4.508;2023-04-27T08:12:44;101891.47;;;10.62;49.81
72465;BME280;60471;52.150;4.508;2023-04-27T08:15:10;101880.19;;;10.57;50.30
72465;BME280;60471;52.150;4.508;2023-04-27T08:17:37;101889.25;;;10.49;49.68
72465;BME280;60471;52.150;4.508;2023-04-27T08:20:07;101885.69;;;10.20;49.67
72465;BME280;60471;52.150;4.508;2023-04-27T08:22:39;101888.13;;;9.97;50.82
72465;BME280;60471;52.150;4.508;2023-04-27T08:25:07;101882.84;;;9.97;50.82
72465;BME280;60471;52.150;4.508;2023-04-27T08:27:37;101885.63;;;9.92;50.68
72465;BME280;60471;52.150;4.508;2023-04-27T08:30:05;101882.75;;;10.32;50.36
72465;BME280;60471;52.150;4.508;2023-04-27T08:32:32;101879.72;;;10.72;49.67
72465;BME280;60471;52.150;4.508;2023-04-27T08:34:58;101881.25;;;10.80;49.57
72465;BME280;60471;52.150;4.508;2023-04-27T08:37:24;101884.00;;;11.03;49.20
72465;BME280;60471;52.150;4.508;2023-04-27T08:39:50;101890.09;;;11.05;48.93
72465;BME280;60471;52.150;4.508;2023-04-27T08:42:16;101881.91;;;11.13;48.27
72465;BME280;60471;52.150;4.508;2023-04-27T08:44:43;101880.66;;;10.98;48.39
72465;BME280;60471;52.150;4.508;2023-04-27T08:47:10;101882.38;;;11.25;48.71
72465;BME280;60471;52.150;4.508;2023-04-27T08:49:36;101882.22;;;11.55;48.53
72465;BME280;60471;52.150;4.508;2023-04-27T08:52:09;101879.97;;;11.94;46.42
72465;BME280;60471;52.150;4.508;2023-04-27T08:54:39;101879.22;;;11.41;46.54
72465;BME280;60471;52.150;4.508;2023-04-27T08:57:12;101879.88;;;10.94;47.50
72465;BME280;60471;52.150;4.508;2023-04-27T08:59:40;101881.59;;;10.95;47.88
72465;BME280;60471;52.150;4.508;2023-04-27T09:02:18;101879.41;;;11.35;48.09
72465;BME280;60471;52.150;4.508;2023-04-27T09:04:45;101874.84;;;11.65;47.58
72465;BME280;60471;52.150;4.508;2023-04-27T09:07:16;101871.72;;;12.02;45.42
72465;BME280;60471;52.150;4.508;2023-04-27T09:09:43;101867.75;;;12.37;44.78
72465;BME280;60471;52.150;4.508;2023-04-27T09:12:18;101871.00;;;12.22;44.52
72465;BME280;60471;52.150;4.508;2023-04-27T09:14:59;101865.91;;;12.39;44.35
72465;BME280;60471;52.150;4.508;2023-04-27T09:17:29;101879.22;;;12.14;44.20
72465;BME280;60471;52.150;4.508;2023-04-27T09:20:09;101867.25;;;12.04;44.18
72465;BME280;60471;52.150;4.508;2023-04-27T09:25:25;101876.16;;;12.25;43.34
72465;BME280;60471;52.150;4.508;2023-04-27T09:27:53;101858.63;;;11.99;43.67
72465;BME280;60471;52.150;4.508;2023-04-27T09:30:21;101867.66;;;12.16;43.62
72465;BME280;60471;52.150;4.508;2023-04-27T09:32:58;101862.44;;;12.82;42.63
72465;BME280;60471;52.150;4.508;2023-04-27T09:35:28;101863.75;;;13.55;42.44
72465;BME280;60471;52.150;4.508;2023-04-27T09:37:56;101868.09;;;13.37;41.36
72465;BME280;60471;52.150;4.508;2023-04-27T09:40:27;101861.75;;;13.99;40.19
72465;BME280;60471;52.150;4.508;2023-04-27T09:42:57;101868.53;;;14.25;40.09
72465;BME280;60471;52.150;4.508;2023-04-27T09:45:28;101870.81;;;13.36;40.84
72465;BME280;60471;52.150;4.508;2023-04-27T09:47:54;101869.81;;;12.96;42.06
72465;BME280;60471;52.150;4.508;2023-04-27T09:50:21;101861.84;;;13.98;38.32
72465;BME280;60471;52.150;4.508;2023-04-27T09:52:47;101861.38;;;14.27;36.98
72465;BME280;60471;52.150;4.508;2023-04-27T09:55:16;101861.72;;;14.19;37.03
72465;BME280;60471;52.150;4.508;2023-04-27T10:06:58;101857.09;;;14.42;36.66
72465;BME280;60471;52.150;4.508;2023-04-27T10:09:43;101864.63;;;14.89;35.75
72465;BME280;60471;52.150;4.508;2023-04-27T10:14:57;101860.84;;;14.19;36.64
72465;BME280;60471;52.150;4.508;2023-04-27T10:17:29;101854.41;;;14.62;38.29
72465;BME280;60471;52.150;4.508;2023-04-27T10:19:58;101850.81;;;15.34;36.58
72465;BME280;60471;52.150;4.508;2023-04-27T10:22:50;101848.47;;;14.57;34.25
72465;BME280;60471;52.150;4.508;2023-04-27T10:28:03;101848.81;;;15.55;32.37
72465;BME280;60471;52.150;4.508;2023-04-27T10:30:35;101847.53;;;16.12;31.44
72465;BME280;60471;52.150;4.508;2023-04-27T10:33:09;101844.88;;;16.75;29.66
72465;BME280;60471;52.150;4.508;2023-04-27T10:35:53;101842.84;;;17.69;28.51
72465;BME280;60471;52.150;4.508;2023-04-27T10:38:28;101846.88;;;18.46;28.55
72465;BME280;60471;52.150;4.508;2023-04-27T10:40:56;101842.13;;;18.78;28.49
72465;BME280;60471;52.150;4.508;2023-04-27T10:43:30;101831.03;;;21.55;27.71
72465;BME280;60471;52.150;4.508;2023-04-27T10:46:13;101843.53;;;18.57;27.21
72465;BME280;60471;52.150;4.508;2023-04-27T10:48:41;101836.38;;;19.75;27.03
72465;BME280;60471;52.150;4.508;2023-04-27T10:51:08;101830.47;;;21.85;24.60
72465;BME280;60471;52.150;4.508;2023-04-27T10:53:35;101831.75;;;20.02;25.07
72465;BME280;60471;52.150;4.508;2023-04-27T10:56:03;101824.81;;;20.00;25.55
72465;BME280;60471;52.150;4.508;2023-04-27T10:58:32;101830.59;;;19.81;26.07
72465;BME280;60471;52.150;4.508;2023-04-27T11:00:59;101819.16;;;20.65;24.53
72465;BME280;60471;52.150;4.508;2023-04-27T11:03:25;101819.56;;;21.06;24.24
72465;BME280;60471;52.150;4.508;2023-04-27T11:06:04;101804.56;;;22.17;23.62
72465;BME280;60471;52.150;4.508;2023-04-27T11:08:31;101806.59;;;22.36;22.96
72465;BME280;60471;52.150;4.508;2023-04-27T11:10:58;101813.19;;;20.96;24.68
72465;BME280;60471;52.150;4.508;2023-04-27T11:13:25;101812.38;;;21.76;23.82
72465;BME280;60471;52.150;4.508;2023-04-27T11:15:55;101811.88;;;19.81;25.78
72465;BME280;60471;52.150;4.508;2023-04-27T11:18:29;101795.88;;;20.65;23.67
72465;BME280;60471;52.150;4.508;2023-04-27T11:21:11;101802.03;;;19.56;25.93
72465;BME280;60471;52.150;4.508;2023-04-27T11:23:40;101796.53;;;19.45;26.42
72465;BME280;60471;52.150;4.508;2023-04-27T11:26:17;101797.06;;;19.11;26.02
72465;BME280;60471;52.150;4.508;2023-04-27T11:31:39;101786.13;;;20.64;26.34
72465;BME280;60471;52.150;4.508;2023-04-27T11:34:16;101783.94;;;20.45;25.21
72465;BME280;60471;52.150;4.508;2023-04-27T11:36:43;101788.03;;;20.02;26.18
72465;BME280;60471;52.150;4.508;2023-04-27T11:39:16;101788.00;;;20.14;25.09
72465;BME280;60471;52.150;4.508;2023-04-27T11:41:47;101774.28;;;20.19;25.84
72465;BME280;60471;52.150;4.508;2023-04-27T11:44:13;101783.81;;;20.71;25.27
72465;BME280;60471;52.150;4.508;2023-04-27T11:46:43;101780.25;;;22.51;24.58
72465;BME280;60471;52.150;4.508;2023-04-27T11:49:11;101777.44;;;21.98;22.97
72465;BME280;60471;52.150;4.508;2023-04-27T11:51:38;101781.47;;;22.15;21.40
72465;BME280;60471;52.150;4.508;2023-04-27T11:54:05;101772.84;;;23.38;21.60
72465;BME280;60471;52.150;4.508;2023-04-27T11:56:40;101779.34;;;25.04;19.05
72465;BME280;60471;52.150;4.508;2023-04-27T11:59:18;101776.03;;;22.69;21.63
72465;BME280;60471;52.150;4.508;2023-04-27T12:01:45;101768.59;;;23.35;21.51
72465;BME280;60471;52.150;4.508;2023-04-27T12:04:12;101759.03;;;25.47;20.19
72465;BME280;60471;52.150;4.508;2023-04-27T12:06:38;101763.56;;;25.56;19.58
72465;BME280;60471;52.150;4.508;2023-04-27T12:09:04;101762.22;;;22.95;20.66
72465;BME280;60471;52.150;4.508;2023-04-27T12:11:31;101770.59;;;22.16;23.18
72465;BME280;60471;52.150;4.508;2023-04-27T12:13:58;101763.09;;;22.31;21.62
72465;BME280;60471;52.150;4.508;2023-04-27T12:16:24;101761.78;;;24.02;20.85
72465;BME280;60471;52.150;4.508;2023-04-27T12:18:50;101757.78;;;23.05;21.28
72465;BME280;60471;52.150;4.508;2023-04-27T12:21:17;101762.53;;;23.22;21.01
72465;BME280;60471;52.150;4.508;2023-04-27T12:23:43;101758.59;;;20.49;23.58
72465;BME280;60471;52.150;4.508;2023-04-27T12:26:10;101758.78;;;21.63;24.42
72465;BME280;60471;52.150;4.508;2023-04-27T12:28:37;101750.34;;;22.65;21.17
72465;BME280;60471;52.150;4.508;2023-04-27T12:31:04;101755.56;;;20.30;23.28
72465;BME280;60471;52.150;4.508;2023-04-27T12:33:30;101755.63;;;20.65;21.66
72465;BME280;60471;52.150;4.508;2023-04-27T12:35:57;101752.28;;;20.50;21.76
72465;BME280;60471;52.150;4.508;2023-04-27T12:38:23;101753.81;;;19.30;25.12
72465;BME280;60471;52.150;4.508;2023-04-27T12:40:49;101752.03;;;19.56;24.87
72465;BME280;60471;52.150;4.508;2023-04-27T12:43:16;101740.19;;;19.72;24.41
72465;BME280;60471;52.150;4.508;2023-04-27T12:45:42;101747.28;;;18.57;24.47
72465;BME280;60471;52.150;4.508;2023-04-27T12:48:08;101746.06;;;17.51;26.25
72465;BME280;60471;52.150;4.508;2023-04-27T12:50:36;101740.13;;;17.89;25.73
72465;BME280;60471;52.150;4.508;2023-04-27T12:53:02;101740.22;;;18.29;25.97
72465;BME280;60471;52.150;4.508;2023-04-27T12:55:29;101741.47;;;18.77;25.98
72465;BME280;60471;52.150;4.508;2023-04-27T12:57:55;101744.19;;;18.90;26.17
72465;BME280;60471;52.150;4.508;2023-04-27T13:00:23;101747.59;;;19.17;27.30
72465;BME280;60471;52.150;4.508;2023-04-27T13:02:53;101744.31;;;20.73;25.75
72465;BME280;60471;52.150;4.508;2023-04-27T13:05:19;101745.50;;;21.15;25.99
72465;BME280;60471;52.150;4.508;2023-04-27T13:07:47;101748.16;;;19.60;24.99
72465;BME280;60471;52.150;4.508;2023-04-27T13:10:13;101737.44;;;18.30;27.01
72465;BME280;60471;52.150;4.508;2023-04-27T13:12:39;101735.06;;;18.52;26.88
72465;BME280;60471;52.150;4.508;2023-04-27T13:15:06;101733.94;;;19.22;26.53
72465;BME280;60471;52.150;4.508;2023-04-27T13:17:33;101729.69;;;20.42;26.27
72465;BME280;60471;52.150;4.508;2023-04-27T13:19:59;101731.31;;;19.71;25.97